createdAt,value
2023-02-11T00:01:11.651Z,29.37
2023-02-11T00:03:39.007Z,27.80
2023-02-11T00:06:11.460Z,31.00
2023-02-11T00:08:39.519Z,30.47
2023-02-11T00:11:07.302Z,31.73
2023-02-11T00:13:34.261Z,29.00
2023-02-11T00:16:09.795Z,32.43
2023-02-11T00:18:37.034Z,28.47
2023-02-11T00:21:17.380Z,31.60
2023-02-11T00:23:45.223Z,31.27
2023-02-11T00:26:19.105Z,31.47
2023-02-11T00:28:48.352Z,30.53
2023-02-11T00:31:18.045Z,30.10
2023-02-11T00:33:46.080Z,29.63
2023-02-11T00:36:23.923Z,29.10
2023-02-11T00:38:53.248Z,30.30
2023-02-11T00:41:21.866Z,29.37
2023-02-11T00:43:49.706Z,29.83
2023-02-11T00:46:16.965Z,30.20
2023-02-11T00:48:44.869Z,31.40
2023-02-11T00:51:12.615Z,30.27
2023-02-11T00:53:40.025Z,30.20
2023-02-11T00:56:08.117Z,30.90
2023-02-11T00:58:35.465Z,32.27
2023-02-11T01:01:02.565Z,30.97
2023-02-11T01:03:29.602Z,29.77
2023-02-11T01:05:56.909Z,29.27
2023-02-11T01:08:23.850Z,28.47
2023-02-11T01:10:59.465Z,31.23
2023-02-11T01:13:28.249Z,29.00
2023-02-11T01:15:57.073Z,28.33
2023-02-11T01:18:25.516Z,29.10
2023-02-11T01:20:54.028Z,31.13
2023-02-11T01:23:21.607Z,31.67
2023-02-11T01:25:48.995Z,29.17
2023-02-11T01:28:25.866Z,28.57
2023-02-11T01:30:53.904Z,29.23
2023-02-11T01:33:22.689Z,29.53
2023-02-11T01:35:50.371Z,29.90
2023-02-11T01:38:23.026Z,27.73
2023-02-11T01:41:07.130Z,25.60
2023-02-11T01:43:43.122Z,23.63
2023-02-11T01:46:33.453Z,30.50
2023-02-11T01:49:10.206Z,26.53
2023-02-11T01:52:09.415Z,29.60
2023-02-11T01:55:07.216Z,27.67
2023-02-11T01:57:38.159Z,26.80
2023-02-11T02:00:11.360Z,29.20
2023-02-11T02:03:04.494Z,29.60
2023-02-11T02:06:17.518Z,26.30
2023-02-11T02:08:52.966Z,25.73
2023-02-11T02:11:20.005Z,30.30
2023-02-11T02:13:47.200Z,28.33
2023-02-11T02:16:18.831Z,28.10
2023-02-11T02:19:44.170Z,27.50
2023-02-11T02:22:54.977Z,26.20
2023-02-11T02:26:19.857Z,25.77
2023-02-11T02:28:52.796Z,27.27
2023-02-11T02:31:31.895Z,28.83
2023-02-11T02:34:19.997Z,30.37
2023-02-11T02:37:01.453Z,31.57
2023-02-11T02:39:34.249Z,29.50
2023-02-11T02:42:02.556Z,27.87
2023-02-11T02:44:31.565Z,28.80
2023-02-11T02:46:58.689Z,24.33
2023-02-11T02:49:25.692Z,26.67
2023-02-11T02:52:26.580Z,25.50
2023-02-11T02:55:23.807Z,26.13
2023-02-11T02:58:29.242Z,22.50
2023-02-11T03:01:24.542Z,25.80
2023-02-11T03:04:13.481Z,26.80
2023-02-11T03:07:17.430Z,27.67
2023-02-11T03:09:58.834Z,25.03
2023-02-11T03:12:30.984Z,27.40
2023-02-11T03:14:59.863Z,29.90
2023-02-11T03:17:29.787Z,25.93
2023-02-11T03:19:59.633Z,29.27
2023-02-11T03:22:35.744Z,26.50
2023-02-11T03:25:03.750Z,27.57
2023-02-11T03:27:44.335Z,26.00
2023-02-11T03:30:29.652Z,26.30
2023-02-11T03:33:07.170Z,25.37
2023-02-11T03:35:49.813Z,27.20
2023-02-11T03:38:36.561Z,26.00
2023-02-11T03:41:07.394Z,26.03
2023-02-11T03:43:41.240Z,25.30
2023-02-11T03:46:10.852Z,27.23
2023-02-11T03:48:47.539Z,25.57
2023-02-11T03:51:17.063Z,28.37
2023-02-11T03:53:47.364Z,27.33
2023-02-11T03:56:23.682Z,30.43
2023-02-11T03:58:51.181Z,27.23
2023-02-11T04:01:18.312Z,28.00
2023-02-11T04:03:45.205Z,28.33
2023-02-11T04:06:12.278Z,27.77
2023-02-11T04:08:39.339Z,28.53
2023-02-11T04:11:06.251Z,29.57
2023-02-11T04:13:33.194Z,28.80
2023-02-11T04:16:00.250Z,28.50
2023-02-11T04:18:27.440Z,27.60
2023-02-11T04:20:54.424Z,27.47
2023-02-11T04:23:21.489Z,25.10
2023-02-11T04:25:50.809Z,24.93
2023-02-11T04:28:18.162Z,25.57
2023-02-11T04:30:45.149Z,24.77
2023-02-11T04:33:12.106Z,23.67
2023-02-11T04:35:38.998Z,27.00
2023-02-11T04:38:06.072Z,26.13
2023-02-11T04:40:33.125Z,24.23
2023-02-11T04:43:00.119Z,25.43
2023-02-11T04:45:27.024Z,23.73
2023-02-11T04:47:53.926Z,26.13
2023-02-11T04:50:20.837Z,24.10
2023-02-11T04:52:47.787Z,25.07
2023-02-11T04:55:14.747Z,24.17
2023-02-11T04:57:41.756Z,25.97
2023-02-11T05:00:10.193Z,23.20
2023-02-11T05:02:37.130Z,23.80
2023-02-11T05:05:04.649Z,23.30
2023-02-11T05:07:32.032Z,23.10
2023-02-11T05:09:59.110Z,23.70
2023-02-11T05:12:26.146Z,23.50
2023-02-11T05:14:53.145Z,24.63
2023-02-11T05:17:20.250Z,24.40
2023-02-11T05:19:47.161Z,25.10
2023-02-11T05:22:14.116Z,25.00
2023-02-11T05:24:41.302Z,27.87
2023-02-11T05:27:08.235Z,25.87
2023-02-11T05:29:35.225Z,23.53
2023-02-11T05:32:02.207Z,23.30
2023-02-11T05:34:29.131Z,24.73
2023-02-11T05:36:56.618Z,23.33
2023-02-11T05:39:23.540Z,23.23
2023-02-11T05:41:50.462Z,24.57
2023-02-11T05:44:17.388Z,25.10
2023-02-11T05:46:44.445Z,27.60
2023-02-11T05:49:11.363Z,26.20
2023-02-11T05:51:38.405Z,26.50
2023-02-11T05:54:05.760Z,27.17
2023-02-11T05:56:32.640Z,27.43
2023-02-11T05:59:00.565Z,26.77
2023-02-11T06:01:27.686Z,27.70
2023-02-11T06:03:55.308Z,25.20
2023-02-11T06:06:22.491Z,23.63
2023-02-11T06:08:49.440Z,23.67
2023-02-11T06:11:17.958Z,23.70
2023-02-11T06:13:44.955Z,22.07
2023-02-11T06:16:11.916Z,22.77
2023-02-11T06:18:38.946Z,25.80
2023-02-11T06:21:11.199Z,25.63
2023-02-11T06:23:39.086Z,25.70
2023-02-11T06:26:09.089Z,26.37
2023-02-11T06:28:36.387Z,25.87
2023-02-11T06:31:08.223Z,24.10
2023-02-11T06:33:36.317Z,27.10
2023-02-11T06:36:05.460Z,30.37
2023-02-11T06:38:32.496Z,31.17
2023-02-11T06:40:59.413Z,36.80
2023-02-11T06:43:26.467Z,35.13
2023-02-11T06:45:56.690Z,40.53
2023-02-11T06:48:24.040Z,34.73
2023-02-11T06:50:51.013Z,28.40
2023-02-11T06:53:17.930Z,25.33
2023-02-11T06:55:44.963Z,26.20
2023-02-11T06:58:11.937Z,26.47
2023-02-11T07:00:39.115Z,26.60
2023-02-11T07:03:06.141Z,25.50
2023-02-11T07:05:34.498Z,34.57
2023-02-11T07:08:01.779Z,27.40
2023-02-11T07:10:28.796Z,31.30
2023-02-11T07:12:58.447Z,27.97
2023-02-11T07:15:25.974Z,22.20
2023-02-11T07:17:52.973Z,24.03
2023-02-11T07:20:20.101Z,20.17
2023-02-11T07:22:47.066Z,21.00
2023-02-11T07:25:14.195Z,20.27
2023-02-11T07:27:41.154Z,22.57
2023-02-11T07:30:09.342Z,23.07
2023-02-11T07:32:36.342Z,20.93
2023-02-11T07:35:04.090Z,30.97
2023-02-11T07:37:31.133Z,25.37
2023-02-11T07:39:58.104Z,23.87
2023-02-11T07:42:24.982Z,21.07
2023-02-11T07:44:51.963Z,23.37
2023-02-11T07:47:18.926Z,25.33
2023-02-11T07:49:46.274Z,24.00
2023-02-11T07:52:13.274Z,24.53
2023-02-11T07:54:40.492Z,22.50
2023-02-11T07:57:07.443Z,22.40
2023-02-11T07:59:34.519Z,25.97
2023-02-11T08:02:01.609Z,21.90
2023-02-11T08:04:29.002Z,22.90
2023-02-11T08:06:59.103Z,21.23
2023-02-11T08:09:26.218Z,20.10
2023-02-11T08:11:53.217Z,22.40
2023-02-11T08:14:20.894Z,22.10
2023-02-11T08:16:48.058Z,22.13
2023-02-11T08:19:16.857Z,24.53
2023-02-11T08:21:44.525Z,23.40
2023-02-11T08:24:12.488Z,27.67
2023-02-11T08:26:39.676Z,27.30
2023-02-11T08:29:11.864Z,26.47
2023-02-11T08:31:42.746Z,24.43
2023-02-11T08:34:11.721Z,23.27
2023-02-11T08:36:40.619Z,25.80
2023-02-11T08:39:19.745Z,23.20
2023-02-11T08:41:54.315Z,26.43
2023-02-11T08:44:22.891Z,25.10
2023-02-11T08:46:51.652Z,22.27
2023-02-11T08:49:19.461Z,22.40
2023-02-11T08:51:47.317Z,25.60
2023-02-11T08:54:15.342Z,23.17
2023-02-11T08:56:43.250Z,24.53
2023-02-11T08:59:15.247Z,21.07
2023-02-11T09:01:42.438Z,23.30
2023-02-11T09:04:10.828Z,24.07
2023-02-11T09:06:37.813Z,23.40
2023-02-11T09:09:05.009Z,22.40
2023-02-11T09:11:35.808Z,21.00
2023-02-11T09:14:04.750Z,21.47
2023-02-11T09:16:36.377Z,21.53
2023-02-11T09:19:05.479Z,21.40
2023-02-11T09:21:32.574Z,19.10
2023-02-11T09:23:59.626Z,17.83
2023-02-11T09:26:30.541Z,19.97
2023-02-11T09:28:58.041Z,18.30
2023-02-11T09:31:28.491Z,18.93
2023-02-11T09:34:04.623Z,18.63
2023-02-11T09:36:40.548Z,20.50
2023-02-11T09:39:13.883Z,18.53
2023-02-11T09:42:41.150Z,19.93
2023-02-11T09:45:27.999Z,17.30
2023-02-11T09:48:14.258Z,18.63
2023-02-11T09:50:47.126Z,19.50
2023-02-11T09:53:29.980Z,20.17
2023-02-11T09:56:01.234Z,17.87
2023-02-11T09:58:35.146Z,23.20
2023-02-11T10:01:07.836Z,18.70
2023-02-11T10:04:15.098Z,19.17
2023-02-11T10:06:47.462Z,19.83
2023-02-11T10:09:51.923Z,19.50
2023-02-11T10:13:02.479Z,17.20
2023-02-11T10:15:57.373Z,17.50
2023-02-11T10:19:05.392Z,18.77
2023-02-11T10:21:58.713Z,19.27
2023-02-11T10:24:28.368Z,18.60
2023-02-11T10:26:55.700Z,19.63
2023-02-11T10:29:42.161Z,19.17
2023-02-11T10:32:49.919Z,19.80
2023-02-11T10:35:22.502Z,20.40
2023-02-11T10:37:50.230Z,18.47
2023-02-11T10:40:24.783Z,19.00
2023-02-11T10:42:56.094Z,19.00
2023-02-11T10:45:36.653Z,18.70
2023-02-11T10:48:45.130Z,18.50
2023-02-11T10:51:23.757Z,16.87
2023-02-11T10:54:08.411Z,16.10
2023-02-11T10:56:40.839Z,16.20
2023-02-11T10:59:27.235Z,16.00
2023-02-11T11:02:00.755Z,16.27
2023-02-11T11:04:30.693Z,14.83
2023-02-11T11:07:10.768Z,15.30
2023-02-11T11:10:07.593Z,15.03
2023-02-11T11:12:42.197Z,16.93
2023-02-11T11:15:24.256Z,13.97
2023-02-11T11:18:23.208Z,14.13
2023-02-11T11:21:03.878Z,14.27
2023-02-11T11:23:31.349Z,14.50
2023-02-11T11:26:07.396Z,13.70
2023-02-11T11:29:14.851Z,13.87
2023-02-11T11:31:57.041Z,15.33
2023-02-11T11:34:27.632Z,15.53
2023-02-11T11:36:57.365Z,14.33
2023-02-11T11:39:35.314Z,16.30
2023-02-11T11:42:20.661Z,14.30
2023-02-11T11:45:02.064Z,14.10
2023-02-11T11:48:16.921Z,15.03
2023-02-11T11:51:02.260Z,15.20
2023-02-11T11:53:46.217Z,14.70
2023-02-11T11:56:27.029Z,15.27
2023-02-11T11:58:54.761Z,14.83
2023-02-11T12:01:56.436Z,15.20
2023-02-11T12:04:51.137Z,15.20
2023-02-11T12:07:45.651Z,18.03
2023-02-11T12:10:38.330Z,15.57
2023-02-11T12:13:44.027Z,16.27
2023-02-11T12:16:16.760Z,15.60
2023-02-11T12:19:33.922Z,17.60
2023-02-11T12:22:37.345Z,18.90
2023-02-11T12:25:44.338Z,17.00
2023-02-11T12:28:38.881Z,16.90
2023-02-11T12:32:08.425Z,17.13
2023-02-11T12:35:24.176Z,16.80
2023-02-11T12:38:36.706Z,14.77
2023-02-11T12:41:47.826Z,17.40
2023-02-11T12:44:52.070Z,17.30
2023-02-11T12:47:27.312Z,16.10
2023-02-11T12:50:02.872Z,16.50
2023-02-11T12:52:54.372Z,16.37
2023-02-11T12:55:28.869Z,15.37
2023-02-11T12:57:59.734Z,16.37
2023-02-11T13:00:46.006Z,15.60
2023-02-11T13:03:28.968Z,15.20
2023-02-11T13:06:04.128Z,16.30
2023-02-11T13:08:54.962Z,16.07
2023-02-11T13:11:40.833Z,14.20
2023-02-11T13:14:27.885Z,19.53
2023-02-11T13:16:58.593Z,15.50
2023-02-11T13:19:34.681Z,16.23
2023-02-11T13:22:17.912Z,17.70
2023-02-11T13:24:53.775Z,14.57
2023-02-11T13:27:42.748Z,16.20
2023-02-11T13:30:35.364Z,16.60
2023-02-11T13:33:25.502Z,16.37
2023-02-11T13:35:58.712Z,16.03
2023-02-11T13:38:29.359Z,15.43
2023-02-11T13:41:13.981Z,17.10
2023-02-11T13:43:41.144Z,16.53
2023-02-11T13:46:12.377Z,17.40
2023-02-11T13:48:47.617Z,16.67
2023-02-11T13:51:18.353Z,17.03
2023-02-11T13:53:51.288Z,15.07
2023-02-11T13:56:39.772Z,17.87
2023-02-11T13:59:25.238Z,15.93
2023-02-11T14:02:23.772Z,16.87
2023-02-11T14:05:24.788Z,16.00
2023-02-11T14:08:28.236Z,14.00
2023-02-11T14:11:08.928Z,14.80
2023-02-11T14:13:48.111Z,15.93
2023-02-11T14:16:35.612Z,15.27
2023-02-11T14:19:04.800Z,16.57
2023-02-11T14:21:39.278Z,15.47
2023-02-11T14:24:07.389Z,15.03
2023-02-11T14:26:49.028Z,15.27
2023-02-11T14:29:37.641Z,14.07
2023-02-11T14:32:43.612Z,14.57
2023-02-11T14:35:59.273Z,16.40
2023-02-11T14:38:58.633Z,14.20
2023-02-11T14:41:29.774Z,14.67
2023-02-11T14:44:07.680Z,15.70
2023-02-11T14:46:35.586Z,14.87
2023-02-11T14:49:05.538Z,14.57
2023-02-11T14:51:37.424Z,15.03
2023-02-11T14:54:17.794Z,12.93
2023-02-11T14:56:46.933Z,16.23
2023-02-11T14:59:22.071Z,15.10
2023-02-11T15:01:56.699Z,14.63
2023-02-11T15:04:29.007Z,14.80
2023-02-11T15:07:00.111Z,14.60
2023-02-11T15:09:43.227Z,15.13
2023-02-11T15:12:24.318Z,24.80
2023-02-11T15:14:55.584Z,25.50
2023-02-11T15:17:29.917Z,23.80
2023-02-11T15:20:01.167Z,25.17
2023-02-11T15:22:36.757Z,21.50
2023-02-11T15:25:17.506Z,18.70
2023-02-11T15:27:51.701Z,24.00
2023-02-11T15:30:21.713Z,15.77
2023-02-11T15:33:00.861Z,16.60
2023-02-11T15:35:41.256Z,13.70
2023-02-11T15:38:13.380Z,15.17
2023-02-11T15:40:40.329Z,13.90
2023-02-11T15:43:10.656Z,15.70
2023-02-11T15:45:56.683Z,15.03
2023-02-11T15:48:50.423Z,15.97
2023-02-11T15:51:30.093Z,14.80
2023-02-11T15:54:00.670Z,15.90
2023-02-11T15:56:43.276Z,15.20
2023-02-11T15:59:20.899Z,15.03
2023-02-11T16:01:49.592Z,17.73
2023-02-11T16:04:22.117Z,18.83
2023-02-11T16:06:51.150Z,20.57
2023-02-11T16:09:36.541Z,19.60
2023-02-11T16:12:29.471Z,29.10
2023-02-11T16:14:59.880Z,22.00
2023-02-11T16:17:29.317Z,17.87
2023-02-11T16:19:56.737Z,23.23
2023-02-11T16:22:30.168Z,20.27
2023-02-11T16:25:00.268Z,21.47
2023-02-11T16:27:41.794Z,23.27
2023-02-11T16:30:27.376Z,21.83
2023-02-11T16:32:55.167Z,33.57
2023-02-11T16:35:22.173Z,39.70
2023-02-11T16:37:49.113Z,21.33
2023-02-11T16:40:16.767Z,25.27
2023-02-11T16:42:43.640Z,22.60
2023-02-11T16:45:10.814Z,25.57
2023-02-11T16:47:41.181Z,27.20
2023-02-11T16:50:21.333Z,28.70
2023-02-11T16:52:48.732Z,27.27
2023-02-11T16:55:15.762Z,25.73
2023-02-11T16:57:42.755Z,19.60
2023-02-11T17:00:11.909Z,19.70
2023-02-11T17:02:39.610Z,18.13
2023-02-11T17:05:17.597Z,18.73
2023-02-11T17:07:44.611Z,17.07
2023-02-11T17:10:20.961Z,17.27
2023-02-11T17:12:50.145Z,16.50
2023-02-11T17:15:17.430Z,17.10
2023-02-11T17:17:45.979Z,18.83
2023-02-11T17:20:14.968Z,17.33
2023-02-11T17:22:41.928Z,15.80
2023-02-11T17:25:09.408Z,18.00
2023-02-11T17:27:36.440Z,18.27
2023-02-11T17:30:03.669Z,19.60
2023-02-11T17:32:30.730Z,17.30
2023-02-11T17:34:57.744Z,18.43
2023-02-11T17:37:25.043Z,22.00
2023-02-11T17:39:51.998Z,20.77
2023-02-11T17:42:21.562Z,17.20
2023-02-11T17:44:49.214Z,17.33
2023-02-11T17:47:16.088Z,15.73
2023-02-11T17:49:43.686Z,17.33
2023-02-11T17:52:10.572Z,17.47
2023-02-11T17:54:38.871Z,16.57
2023-02-11T17:57:05.806Z,18.97
2023-02-11T17:59:35.833Z,15.37
2023-02-11T18:02:04.306Z,16.77
2023-02-11T18:04:32.126Z,16.50
2023-02-11T18:06:59.116Z,17.30
2023-02-11T18:09:27.192Z,18.20
2023-02-11T18:11:54.832Z,19.17
2023-02-11T18:14:22.748Z,19.07
2023-02-11T18:16:52.490Z,18.57
2023-02-11T18:19:20.337Z,25.80
2023-02-11T18:21:50.380Z,22.13
2023-02-11T18:24:18.550Z,19.73
2023-02-11T18:26:45.487Z,18.10
2023-02-11T18:29:12.953Z,17.27
2023-02-11T18:31:40.010Z,19.37
2023-02-11T18:34:08.497Z,19.27
2023-02-11T18:36:36.255Z,17.33
2023-02-11T18:39:05.202Z,19.03
2023-02-11T18:41:32.221Z,18.17
2023-02-11T18:44:03.383Z,19.53
2023-02-11T18:46:31.406Z,21.30
2023-02-11T18:48:58.417Z,19.13
2023-02-11T18:51:25.618Z,18.97
2023-02-11T18:53:53.208Z,20.70
2023-02-11T18:56:24.661Z,18.33
2023-02-11T18:58:52.344Z,16.63
2023-02-11T19:01:30.099Z,16.80
2023-02-11T19:03:59.655Z,17.77
2023-02-11T19:06:29.698Z,16.37
2023-02-11T19:09:01.011Z,18.30
2023-02-11T19:11:50.117Z,15.57
2023-02-11T19:14:24.592Z,15.10
2023-02-11T19:16:58.890Z,16.00
2023-02-11T19:19:30.064Z,15.50
2023-02-11T19:21:59.283Z,17.27
2023-02-11T19:24:28.503Z,17.37
2023-02-11T19:27:02.886Z,13.83
2023-02-11T19:29:33.599Z,14.60
2023-02-11T19:32:01.621Z,14.10
2023-02-11T19:34:28.745Z,14.30
2023-02-11T19:36:56.842Z,13.60
2023-02-11T19:39:24.924Z,13.80
2023-02-11T19:41:52.612Z,14.90
2023-02-11T19:44:19.655Z,15.30
2023-02-11T19:46:48.963Z,14.67
2023-02-11T19:49:23.054Z,14.40
2023-02-11T19:51:55.458Z,15.50
2023-02-11T19:54:22.646Z,16.30
2023-02-11T19:56:49.565Z,15.60
2023-02-11T19:59:16.582Z,16.60
2023-02-11T20:01:44.518Z,16.40
2023-02-11T20:04:13.306Z,14.30
2023-02-11T20:06:40.283Z,15.70
2023-02-11T20:09:11.500Z,14.07
2023-02-11T20:11:39.938Z,16.43
2023-02-11T20:14:08.641Z,16.20
2023-02-11T20:16:47.679Z,15.23
2023-02-11T20:19:22.389Z,14.93
2023-02-11T20:21:56.154Z,14.57
2023-02-11T20:24:26.526Z,14.30
2023-02-11T20:26:56.283Z,13.60
2023-02-11T20:29:25.549Z,13.20
2023-02-11T20:31:52.664Z,14.07
2023-02-11T20:34:21.809Z,14.53
2023-02-11T20:36:52.259Z,13.77
2023-02-11T20:39:22.977Z,14.80
2023-02-11T20:41:51.759Z,12.37
2023-02-11T20:44:19.591Z,13.63
2023-02-11T20:46:46.842Z,12.87
2023-02-11T20:49:24.916Z,15.27
2023-02-11T20:51:54.322Z,14.97
2023-02-11T20:54:23.852Z,12.63
2023-02-11T20:56:52.504Z,14.80
2023-02-11T20:59:23.950Z,14.13
2023-02-11T21:01:55.588Z,13.57
2023-02-11T21:04:30.033Z,14.97
2023-02-11T21:07:02.122Z,13.40
2023-02-11T21:09:33.491Z,14.63
2023-02-11T21:12:04.116Z,16.20
2023-02-11T21:14:31.691Z,15.53
2023-02-11T21:16:59.053Z,15.57
2023-02-11T21:19:26.501Z,15.23
2023-02-11T21:21:55.318Z,14.80
2023-02-11T21:24:22.409Z,15.00
2023-02-11T21:26:49.354Z,15.50
2023-02-11T21:29:16.425Z,14.60
2023-02-11T21:31:43.576Z,13.90
2023-02-11T21:34:11.150Z,13.50
2023-02-11T21:36:38.090Z,14.00
2023-02-11T21:39:06.293Z,13.57
2023-02-11T21:41:33.980Z,13.83
2023-02-11T21:44:01.291Z,14.00
2023-02-11T21:46:28.644Z,13.50
2023-02-11T21:48:55.766Z,14.10
2023-02-11T21:51:25.309Z,13.60
2023-02-11T21:54:04.019Z,13.07
2023-02-11T21:56:34.371Z,13.57
2023-02-11T21:59:01.459Z,12.83
2023-02-11T22:01:33.049Z,14.53
2023-02-11T22:04:00.451Z,14.37
2023-02-11T22:06:31.286Z,15.57
2023-02-11T22:09:01.869Z,15.23
2023-02-11T22:11:28.971Z,15.03
2023-02-11T22:13:57.921Z,15.00
2023-02-11T22:16:27.213Z,16.10
2023-02-11T22:18:56.145Z,15.17
2023-02-11T22:21:23.437Z,16.10
2023-02-11T22:23:52.030Z,13.20
2023-02-11T22:26:22.718Z,15.03
2023-02-11T22:28:51.603Z,16.30
2023-02-11T22:31:26.499Z,15.60
2023-02-11T22:33:53.892Z,16.13
2023-02-11T22:36:27.776Z,17.30
2023-02-11T22:38:55.064Z,17.80
2023-02-11T22:41:23.644Z,14.90
2023-02-11T22:43:51.158Z,17.80
2023-02-11T22:46:20.318Z,17.90
2023-02-11T22:48:48.441Z,17.27
2023-02-11T22:51:25.484Z,18.10
2023-02-11T22:53:53.166Z,18.40
2023-02-11T22:56:20.863Z,17.63
2023-02-11T22:58:48.529Z,16.30
2023-02-11T23:01:16.109Z,16.07
2023-02-11T23:03:44.221Z,17.37
2023-02-11T23:06:12.144Z,15.90
2023-02-11T23:08:40.927Z,15.87
2023-02-11T23:11:16.276Z,17.60
2023-02-11T23:13:45.155Z,16.47
2023-02-11T23:16:17.575Z,17.67
2023-02-11T23:18:46.240Z,17.03
2023-02-11T23:21:26.225Z,17.73
2023-02-11T23:24:08.069Z,17.90
2023-02-11T23:26:37.660Z,19.10
2023-02-11T23:29:04.650Z,17.67
2023-02-11T23:31:38.227Z,16.67
2023-02-11T23:34:07.198Z,16.27
2023-02-11T23:36:34.191Z,18.10
2023-02-11T23:39:01.646Z,17.30
2023-02-11T23:41:28.715Z,17.60
2023-02-11T23:43:58.037Z,19.00
2023-02-11T23:46:27.249Z,17.00
2023-02-11T23:48:55.122Z,18.10
2023-02-11T23:51:22.913Z,20.70
2023-02-11T23:53:51.617Z,21.27
2023-02-11T23:56:26.193Z,21.07
2023-02-11T23:58:56.609Z,20.10
